sensor_id;sensor_type;location;lat;lon;timestamp;temperature;humidity
10046;DHT22;5063;50.878;4.742;2023-04-24T00:00:11;10.00;99.90
10046;DHT22;5063;50.878;4.742;2023-04-24T00:02:40;10.10;99.90
10046;DHT22;5063;50.878;4.742;2023-04-24T00:05:07;10.10;99.90
10046;DHT22;5063;50.878;4.742;2023-04-24T00:07:33;10.10;99.90
10046;DHT22;5063;50.878;4.742;2023-04-24T00:10:00;10.10;99.90
10046;DHT22;5063;50.878;4.742;2023-04-24T00:12:26;10.10;99.90
10046;DHT22;5063;50.878;4.742;2023-04-24T00:14:52;10.10;99.90
10046;DHT22;5063;50.878;4.742;2023-04-24T00:17:18;10.10;99.90
10046;DHT22;5063;50.878;4.742;2023-04-24T00:19:47;10.10;99.90
10046;DHT22;5063;50.878;4.742;2023-04-24T00:22:13;10.10;99.90
10046;DHT22;5063;50.878;4.742;2023-04-24T00:24:40;10.10;99.90
10046;DHT22;5063;50.878;4.742;2023-04-24T00:27:06;10.10;99.90
10046;DHT22;5063;50.878;4.742;2023-04-24T00:29:31;10.10;99.90
10046;DHT22;5063;50.878;4.742;2023-04-24T00:31:57;10.20;99.90
10046;DHT22;5063;50.878;4.742;2023-04-24T00:34:23;10.10;99.90
10046;DHT22;5063;50.878;4.742;2023-04-24T00:36:49;10.10;99.90
10046;DHT22;5063;50.878;4.742;2023-04-24T00:39:21;10.10;99.90
10046;DHT22;5063;50.878;4.742;2023-04-24T00:41:47;10.10;99.90
10046;DHT22;5063;50.878;4.742;2023-04-24T00:44:14;10.10;99.90
10046;DHT22;5063;50.878;4.742;2023-04-24T00:46:40;10.10;99.90
10046;DHT22;5063;50.878;4.742;2023-04-24T00:49:06;10.10;99.90
10046;DHT22;5063;50.878;4.742;2023-04-24T00:51:32;10.00;99.90
10046;DHT22;5063;50.878;4.742;2023-04-24T00:53:59;10.00;99.90
10046;DHT22;5063;50.878;4.742;2023-04-24T00:56:25;10.00;99.90
10046;DHT22;5063;50.878;4.742;2023-04-24T00:58:51;9.90;99.90
10046;DHT22;5063;50.878;4.742;2023-04-24T01:01:20;9.90;99.90
10046;DHT22;5063;50.878;4.742;2023-04-24T01:03:47;9.90;99.90
10046;DHT22;5063;50.878;4.742;2023-04-24T01:06:14;9.80;99.90
10046;DHT22;5063;50.878;4.742;2023-04-24T01:08:41;9.80;99.90
10046;DHT22;5063;50.878;4.742;2023-04-24T01:11:07;9.80;99.90
10046;DHT22;5063;50.878;4.742;2023-04-24T01:13:33;9.80;99.90
10046;DHT22;5063;50.878;4.742;2023-04-24T01:16:00;9.80;99.90
10046;DHT22;5063;50.878;4.742;2023-04-24T01:18:27;9.80;99.90
10046;DHT22;5063;50.878;4.742;2023-04-24T01:20:56;9.80;99.90
10046;DHT22;5063;50.878;4.742;2023-04-24T01:23:22;9.70;99.90
10046;DHT22;5063;50.878;4.742;2023-04-24T01:25:49;9.80;99.90
10046;DHT22;5063;50.878;4.742;2023-04-24T01:28:16;9.70;99.90
10046;DHT22;5063;50.878;4.742;2023-04-24T01:30:42;9.70;99.90
10046;DHT22;5063;50.878;4.742;2023-04-24T01:33:08;9.80;99.90
10046;DHT22;5063;50.878;4.742;2023-04-24T01:35:33;9.80;99.90
10046;DHT22;5063;50.878;4.742;2023-04-24T01:37:59;9.80;99.90
10046;DHT22;5063;50.878;4.742;2023-04-24T01:40:25;9.70;99.90
10046;DHT22;5063;50.878;4.742;2023-04-24T01:42:51;9.80;99.90
10046;DHT22;5063;50.878;4.742;2023-04-24T01:45:18;9.80;99.90
10046;DHT22;5063;50.878;4.742;2023-04-24T01:47:44;9.70;99.90
10046;DHT22;5063;50.878;4.742;2023-04-24T01:50:10;9.80;99.90
10046;DHT22;5063;50.878;4.742;2023-04-24T01:52:36;9.80;99.90
10046;DHT22;5063;50.878;4.742;2023-04-24T01:55:03;9.70;99.90
10046;DHT22;5063;50.878;4.742;2023-04-24T01:57:30;9.60;99.90
10046;DHT22;5063;50.878;4.742;2023-04-24T01:59:56;9.50;99.90
10046;DHT22;5063;50.878;4.742;2023-04-24T02:02:23;9.50;99.90
10046;DHT22;5063;50.878;4.742;2023-04-24T02:04:56;9.40;99.90
10046;DHT22;5063;50.878;4.742;2023-04-24T02:07:22;9.40;99.90
10046;DHT22;5063;50.878;4.742;2023-04-24T02:09:48;9.30;99.90
10046;DHT22;5063;50.878;4.742;2023-04-24T02:12:17;9.40;99.90
10046;DHT22;5063;50.878;4.742;2023-04-24T02:14:43;9.30;99.90
10046;DHT22;5063;50.878;4.742;2023-04-24T02:17:09;9.30;99.90
10046;DHT22;5063;50.878;4.742;2023-04-24T02:19:37;9.30;99.90
10046;DHT22;5063;50.878;4.742;2023-04-24T02:22:03;9.40;99.90
10046;DHT22;5063;50.878;4.742;2023-04-24T02:24:29;9.30;99.90
10046;DHT22;5063;50.878;4.742;2023-04-24T02:26:54;9.30;99.90
10046;DHT22;5063;50.878;4.742;2023-04-24T02:29:21;9.40;99.90
10046;DHT22;5063;50.878;4.742;2023-04-24T02:31:46;9.30;99.90
10046;DHT22;5063;50.878;4.742;2023-04-24T02:34:12;9.30;99.90
10046;DHT22;5063;50.878;4.742;2023-04-24T02:36:38;9.40;99.90
10046;DHT22;5063;50.878;4.742;2023-04-24T02:39:04;9.60;99.90
10046;DHT22;5063;50.878;4.742;2023-04-24T02:41:29;9.70;99.90
10046;DHT22;5063;50.878;4.742;2023-04-24T02:44:00;9.70;99.90
10046;DHT22;5063;50.878;4.742;2023-04-24T02:46:26;9.60;99.90
10046;DHT22;5063;50.878;4.742;2023-04-24T02:48:52;9.60;99.90
10046;DHT22;5063;50.878;4.742;2023-04-24T02:51:18;9.60;99.90
10046;DHT22;5063;50.878;4.742;2023-04-24T02:53:43;9.60;99.90
10046;DHT22;5063;50.878;4.742;2023-04-24T02:56:09;9.70;99.90
10046;DHT22;5063;50.878;4.742;2023-04-24T02:58:38;9.70;99.90
10046;DHT22;5063;50.878;4.742;2023-04-24T03:01:03;9.60;99.90
10046;DHT22;5063;50.878;4.742;2023-04-24T03:03:30;9.60;99.90
10046;DHT22;5063;50.878;4.742;2023-04-24T03:05:56;9.60;99.90
10046;DHT22;5063;50.878;4.742;2023-04-24T03:08:22;9.50;99.90
10046;DHT22;5063;50.878;4.742;2023-04-24T03:10:48;9.50;99.90
10046;DHT22;5063;50.878;4.742;2023-04-24T03:13:16;9.50;99.90
10046;DHT22;5063;50.878;4.742;2023-04-24T03:15:41;9.40;99.90
10046;DHT22;5063;50.878;4.742;2023-04-24T03:18:07;9.40;99.90
10046;DHT22;5063;50.878;4.742;2023-04-24T03:20:33;9.40;99.90
10046;DHT22;5063;50.878;4.742;2023-04-24T03:22:59;9.60;99.90
10046;DHT22;5063;50.878;4.742;2023-04-24T03:25:25;9.40;99.90
10046;DHT22;5063;50.878;4.742;2023-04-24T03:27:51;9.40;99.90
10046;DHT22;5063;50.878;4.742;2023-04-24T03:30:17;9.40;99.90
10046;DHT22;5063;50.878;4.742;2023-04-24T03:32:42;9.30;99.90
10046;DHT22;5063;50.878;4.742;2023-04-24T03:35:08;9.40;99.90
10046;DHT22;5063;50.878;4.742;2023-04-24T03:37:34;9.40;99.90
10046;DHT22;5063;50.878;4.742;2023-04-24T03:40:01;9.30;99.90
10046;DHT22;5063;50.878;4.742;2023-04-24T03:42:26;9.30;99.90
10046;DHT22;5063;50.878;4.742;2023-04-24T03:44:52;9.30;99.90
10046;DHT22;5063;50.878;4.742;2023-04-24T03:47:18;9.30;99.90
10046;DHT22;5063;50.878;4.742;2023-04-24T03:49:44;9.30;99.90
10046;DHT22;5063;50.878;4.742;2023-04-24T03:52:09;9.30;99.90
10046;DHT22;5063;50.878;4.742;2023-04-24T03:54:35;9.30;99.90
10046;DHT22;5063;50.878;4.742;2023-04-24T03:57:01;9.40;99.90
10046;DHT22;5063;50.878;4.742;2023-04-24T03:59:27;9.40;99.90
10046;DHT22;5063;50.878;4.742;2023-04-24T04:01:52;9.50;99.90
10046;DHT22;5063;50.878;4.742;2023-04-24T04:04:19;9.50;99.90
10046;DHT22;5063;50.878;4.742;2023-04-24T04:06:45;9.50;99.90
10046;DHT22;5063;50.878;4.742;2023-04-24T04:09:12;9.40;99.90
10046;DHT22;5063;50.878;4.742;2023-04-24T04:11:37;9.40;99.90
10046;DHT22;5063;50.878;4.742;2023-04-24T04:14:03;9.40;99.90
10046;DHT22;5063;50.878;4.742;2023-04-24T04:16:29;9.40;99.90
10046;DHT22;5063;50.878;4.742;2023-04-24T04:18:55;9.30;99.90
10046;DHT22;5063;50.878;4.742;2023-04-24T04:21:21;9.30;99.90
10046;DHT22;5063;50.878;4.742;2023-04-24T04:23:47;9.30;99.90
10046;DHT22;5063;50.878;4.742;2023-04-24T04:26:13;9.40;99.90
10046;DHT22;5063;50.878;4.742;2023-04-24T04:28:39;9.40;99.90
10046;DHT22;5063;50.878;4.742;2023-04-24T04:31:05;9.40;99.90
10046;DHT22;5063;50.878;4.742;2023-04-24T04:33:33;9.50;99.90
10046;DHT22;5063;50.878;4.742;2023-04-24T04:35:59;9.40;99.90
10046;DHT22;5063;50.878;4.742;2023-04-24T04:38:25;9.40;99.90
10046;DHT22;5063;50.878;4.742;2023-04-24T04:40:55;9.30;99.90
10046;DHT22;5063;50.878;4.742;2023-04-24T04:43:24;9.40;99.90
10046;DHT22;5063;50.878;4.742;2023-04-24T04:45:51;9.40;99.90
10046;DHT22;5063;50.878;4.742;2023-04-24T04:48:17;9.50;99.90
10046;DHT22;5063;50.878;4.742;2023-04-24T04:50:44;9.50;99.90
10046;DHT22;5063;50.878;4.742;2023-04-24T04:53:11;9.50;99.90
10046;DHT22;5063;50.878;4.742;2023-04-24T04:55:37;9.50;99.90
10046;DHT22;5063;50.878;4.742;2023-04-24T04:58:03;9.50;99.90
10046;DHT22;5063;50.878;4.742;2023-04-24T05:00:29;9.50;99.90
10046;DHT22;5063;50.878;4.742;2023-04-24T05:02:59;9.40;99.90
10046;DHT22;5063;50.878;4.742;2023-04-24T05:05:25;9.30;99.90
10046;DHT22;5063;50.878;4.742;2023-04-24T05:07:51;9.30;99.90
10046;DHT22;5063;50.878;4.742;2023-04-24T05:10:17;9.30;99.90
10046;DHT22;5063;50.878;4.742;2023-04-24T05:12:42;9.30;99.90
10046;DHT22;5063;50.878;4.742;2023-04-24T05:15:08;9.20;99.90
10046;DHT22;5063;50.878;4.742;2023-04-24T05:17:34;9.20;99.90
10046;DHT22;5063;50.878;4.742;2023-04-24T05:20:01;9.10;99.90
10046;DHT22;5063;50.878;4.742;2023-04-24T05:22:27;9.10;99.90
10046;DHT22;5063;50.878;4.742;2023-04-24T05:24:52;9.10;99.90
10046;DHT22;5063;50.878;4.742;2023-04-24T05:27:19;9.10;99.90
10046;DHT22;5063;50.878;4.742;2023-04-24T05:29:44;9.20;99.90
10046;DHT22;5063;50.878;4.742;2023-04-24T05:32:10;9.20;99.90
10046;DHT22;5063;50.878;4.742;2023-04-24T05:34:36;9.10;99.90
10046;DHT22;5063;50.878;4.742;2023-04-24T05:37:02;9.20;99.90
10046;DHT22;5063;50.878;4.742;2023-04-24T05:39:28;9.10;99.90
10046;DHT22;5063;50.878;4.742;2023-04-24T05:41:54;9.10;99.90
10046;DHT22;5063;50.878;4.742;2023-04-24T05:44:23;9.20;99.90
10046;DHT22;5063;50.878;4.742;2023-04-24T05:46:49;9.10;99.90
10046;DHT22;5063;50.878;4.742;2023-04-24T05:49:14;9.10;99.90
10046;DHT22;5063;50.878;4.742;2023-04-24T05:51:40;9.20;99.90
10046;DHT22;5063;50.878;4.742;2023-04-24T05:54:06;9.00;99.90
10046;DHT22;5063;50.878;4.742;2023-04-24T05:56:32;9.00;99.90
10046;DHT22;5063;50.878;4.742;2023-04-24T05:58:58;9.00;99.90
10046;DHT22;5063;50.878;4.742;2023-04-24T06:01:23;9.00;99.90
10046;DHT22;5063;50.878;4.742;2023-04-24T06:03:50;9.10;99.90
10046;DHT22;5063;50.878;4.742;2023-04-24T06:06:16;9.10;99.90
10046;DHT22;5063;50.878;4.742;2023-04-24T06:08:42;9.10;99.90
10046;DHT22;5063;50.878;4.742;2023-04-24T06:11:09;9.10;99.90
10046;DHT22;5063;50.878;4.742;2023-04-24T06:13:35;9.10;99.90
10046;DHT22;5063;50.878;4.742;2023-04-24T06:16:01;9.10;99.90
10046;DHT22;5063;50.878;4.742;2023-04-24T06:18:27;9.10;99.90
10046;DHT22;5063;50.878;4.742;2023-04-24T06:20:52;9.10;99.90
10046;DHT22;5063;50.878;4.742;2023-04-24T06:23:18;9.10;99.90
10046;DHT22;5063;50.878;4.742;2023-04-24T06:25:44;9.10;99.90
10046;DHT22;5063;50.878;4.742;2023-04-24T06:28:10;9.10;99.90
10046;DHT22;5063;50.878;4.742;2023-04-24T06:30:36;9.10;99.90
10046;DHT22;5063;50.878;4.742;2023-04-24T06:33:01;9.10;99.90
10046;DHT22;5063;50.878;4.742;2023-04-24T06:35:27;9.20;99.90
10046;DHT22;5063;50.878;4.742;2023-04-24T06:37:53;9.10;99.90
10046;DHT22;5063;50.878;4.742;2023-04-24T06:40:19;9.10;99.90
10046;DHT22;5063;50.878;4.742;2023-04-24T06:42:45;9.10;99.90
10046;DHT22;5063;50.878;4.742;2023-04-24T06:45:10;9.10;99.90
10046;DHT22;5063;50.878;4.742;2023-04-24T06:47:36;9.10;99.90
10046;DHT22;5063;50.878;4.742;2023-04-24T06:50:03;9.10;99.90
10046;DHT22;5063;50.878;4.742;2023-04-24T06:52:29;9.10;99.90
10046;DHT22;5063;50.878;4.742;2023-04-24T06:55:02;9.20;99.90
10046;DHT22;5063;50.878;4.742;2023-04-24T06:57:28;9.10;99.90
10046;DHT22;5063;50.878;4.742;2023-04-24T06:59:54;9.20;99.90
10046;DHT22;5063;50.878;4.742;2023-04-24T07:02:20;9.20;99.90
10046;DHT22;5063;50.878;4.742;2023-04-24T07:04:46;9.10;99.90
10046;DHT22;5063;50.878;4.742;2023-04-24T07:07:13;9.10;99.90
10046;DHT22;5063;50.878;4.742;2023-04-24T07:09:40;9.20;99.90
10046;DHT22;5063;50.878;4.742;2023-04-24T07:12:11;9.30;99.90
10046;DHT22;5063;50.878;4.742;2023-04-24T07:14:38;9.30;99.90
10046;DHT22;5063;50.878;4.742;2023-04-24T07:17:04;9.30;99.90
10046;DHT22;5063;50.878;4.742;2023-04-24T07:19:31;9.30;99.90
10046;DHT22;5063;50.878;4.742;2023-04-24T07:21:56;9.30;99.90
10046;DHT22;5063;50.878;4.742;2023-04-24T07:24:24;9.40;99.90
10046;DHT22;5063;50.878;4.742;2023-04-24T07:26:51;9.50;99.90
10046;DHT22;5063;50.878;4.742;2023-04-24T07:29:17;9.60;99.90
10046;DHT22;5063;50.878;4.742;2023-04-24T07:31:43;9.50;99.90
10046;DHT22;5063;50.878;4.742;2023-04-24T07:34:09;9.50;99.90
10046;DHT22;5063;50.878;4.742;2023-04-24T07:36:35;9.60;99.90
10046;DHT22;5063;50.878;4.742;2023-04-24T07:39:01;9.50;99.90
10046;DHT22;5063;50.878;4.742;2023-04-24T07:41:27;9.50;99.90
10046;DHT22;5063;50.878;4.742;2023-04-24T07:43:53;9.60;99.90
10046;DHT22;5063;50.878;4.742;2023-04-24T07:46:19;9.50;99.90
10046;DHT22;5063;50.878;4.742;2023-04-24T07:48:46;9.50;99.90
10046;DHT22;5063;50.878;4.742;2023-04-24T07:51:14;9.50;99.90
10046;DHT22;5063;50.878;4.742;2023-04-24T07:53:40;9.40;99.90
10046;DHT22;5063;50.878;4.742;2023-04-24T07:56:06;9.30;99.90
10046;DHT22;5063;50.878;4.742;2023-04-24T07:58:32;9.40;99.90
10046;DHT22;5063;50.878;4.742;2023-04-24T08:00:57;9.60;99.90
10046;DHT22;5063;50.878;4.742;2023-04-24T08:03:23;9.60;99.90
10046;DHT22;5063;50.878;4.742;2023-04-24T08:05:50;9.70;99.90
10046;DHT22;5063;50.878;4.742;2023-04-24T08:08:16;9.70;99.90
10046;DHT22;5063;50.878;4.742;2023-04-24T08:10:42;9.70;99.90
10046;DHT22;5063;50.878;4.742;2023-04-24T08:13:08;9.80;99.90
10046;DHT22;5063;50.878;4.742;2023-04-24T08:15:34;10.10;99.90
10046;DHT22;5063;50.878;4.742;2023-04-24T08:18:00;10.70;99.90
10046;DHT22;5063;50.878;4.742;2023-04-24T08:20:25;11.10;99.90
10046;DHT22;5063;50.878;4.742;2023-04-24T08:22:51;11.60;99.90
10046;DHT22;5063;50.878;4.742;2023-04-24T08:25:17;12.00;99.90
10046;DHT22;5063;50.878;4.742;2023-04-24T08:27:44;11.80;99.90
10046;DHT22;5063;50.878;4.742;2023-04-24T08:30:10;11.70;99.90
10046;DHT22;5063;50.878;4.742;2023-04-24T08:32:37;11.30;99.90
10046;DHT22;5063;50.878;4.742;2023-04-24T08:35:03;10.90;99.90
10046;DHT22;5063;50.878;4.742;2023-04-24T08:37:29;10.70;99.90
10046;DHT22;5063;50.878;4.742;2023-04-24T08:39:54;10.60;99.90
10046;DHT22;5063;50.878;4.742;2023-04-24T08:42:21;10.30;99.90
10046;DHT22;5063;50.878;4.742;2023-04-24T08:44:48;10.00;99.90
10046;DHT22;5063;50.878;4.742;2023-04-24T08:47:15;10.10;99.90
10046;DHT22;5063;50.878;4.742;2023-04-24T08:49:41;10.30;99.90
10046;DHT22;5063;50.878;4.742;2023-04-24T08:52:08;10.50;99.90
10046;DHT22;5063;50.878;4.742;2023-04-24T08:54:35;10.80;99.90
10046;DHT22;5063;50.878;4.742;2023-04-24T08:57:02;11.20;99.90
10046;DHT22;5063;50.878;4.742;2023-04-24T08:59:32;11.30;99.90
10046;DHT22;5063;50.878;4.742;2023-04-24T09:01:59;11.40;99.90
10046;DHT22;5063;50.878;4.742;2023-04-24T09:04:25;11.60;99.90
10046;DHT22;5063;50.878;4.742;2023-04-24T09:06:55;12.30;99.90
10046;DHT22;5063;50.878;4.742;2023-04-24T09:09:22;12.20;99.90
10046;DHT22;5063;50.878;4.742;2023-04-24T09:11:52;11.90;99.90
10046;DHT22;5063;50.878;4.742;2023-04-24T09:14:21;11.60;99.90
10046;DHT22;5063;50.878;4.742;2023-04-24T09:16:47;11.40;99.90
10046;DHT22;5063;50.878;4.742;2023-04-24T09:19:13;11.30;99.90
10046;DHT22;5063;50.878;4.742;2023-04-24T09:21:39;11.40;99.90
10046;DHT22;5063;50.878;4.742;2023-04-24T09:24:14;11.30;99.90
10046;DHT22;5063;50.878;4.742;2023-04-24T09:26:43;11.40;99.90
10046;DHT22;5063;50.878;4.742;2023-04-24T09:29:17;11.60;99.90
10046;DHT22;5063;50.878;4.742;2023-04-24T09:31:45;11.90;99.90
10046;DHT22;5063;50.878;4.742;2023-04-24T09:34:11;12.20;99.90
10046;DHT22;5063;50.878;4.742;2023-04-24T09:36:41;12.50;99.90
10046;DHT22;5063;50.878;4.742;2023-04-24T09:39:09;12.60;99.90
10046;DHT22;5063;50.878;4.742;2023-04-24T09:41:50;12.80;99.90
10046;DHT22;5063;50.878;4.742;2023-04-24T09:44:18;13.00;99.90
10046;DHT22;5063;50.878;4.742;2023-04-24T09:46:56;13.20;99.90
10046;DHT22;5063;50.878;4.742;2023-04-24T09:49:25;12.90;99.90
10046;DHT22;5063;50.878;4.742;2023-04-24T09:51:51;12.70;99.90
10046;DHT22;5063;50.878;4.742;2023-04-24T09:54:19;12.20;99.90
10046;DHT22;5063;50.878;4.742;2023-04-24T09:56:49;12.00;99.90
10046;DHT22;5063;50.878;4.742;2023-04-24T09:59:17;11.50;99.90
10046;DHT22;5063;50.878;4.742;2023-04-24T10:01:44;11.50;99.90
10046;DHT22;5063;50.878;4.742;2023-04-24T10:04:23;11.80;99.90
10046;DHT22;5063;50.878;4.742;2023-04-24T10:06:51;12.50;99.90
10046;DHT22;5063;50.878;4.742;2023-04-24T10:09:26;13.10;99.90
10046;DHT22;5063;50.878;4.742;2023-04-24T10:11:53;13.30;99.90
10046;DHT22;5063;50.878;4.742;2023-04-24T10:14:20;13.40;99.90
10046;DHT22;5063;50.878;4.742;2023-04-24T10:16:47;13.30;99.90
10046;DHT22;5063;50.878;4.742;2023-04-24T10:19:15;13.10;99.90
10046;DHT22;5063;50.878;4.742;2023-04-24T10:21:43;12.80;99.90
10046;DHT22;5063;50.878;4.742;2023-04-24T10:24:16;12.60;99.90
10046;DHT22;5063;50.878;4.742;2023-04-24T10:26:42;12.50;99.90
10046;DHT22;5063;50.878;4.742;2023-04-24T10:29:08;12.50;99.90
10046;DHT22;5063;50.878;4.742;2023-04-24T10:31:36;12.80;99.90
10046;DHT22;5063;50.878;4.742;2023-04-24T10:34:04;13.00;99.90
10046;DHT22;5063;50.878;4.742;2023-04-24T10:36:32;13.20;99.90
10046;DHT22;5063;50.878;4.742;2023-04-24T10:39:01;13.10;99.90
10046;DHT22;5063;50.878;4.742;2023-04-24T10:41:27;13.80;99.90
10046;DHT22;5063;50.878;4.742;2023-04-24T10:44:09;14.30;99.90
10046;DHT22;5063;50.878;4.742;2023-04-24T10:46:35;14.30;99.90
10046;DHT22;5063;50.878;4.742;2023-04-24T10:49:08;14.00;99.90
10046;DHT22;5063;50.878;4.742;2023-04-24T10:59:48;14.30;99.90
10046;DHT22;5063;50.878;4.742;2023-04-24T11:02:16;14.10;99.90
10046;DHT22;5063;50.878;4.742;2023-04-24T11:04:43;13.80;99.90
10046;DHT22;5063;50.878;4.742;2023-04-24T11:07:10;13.40;99.90
10046;DHT22;5063;50.878;4.742;2023-04-24T11:09:37;13.10;99.90
10046;DHT22;5063;50.878;4.742;2023-04-24T11:12:07;12.80;99.90
10046;DHT22;5063;50.878;4.742;2023-04-24T11:20:06;12.80;99.90
10046;DHT22;5063;50.878;4.742;2023-04-24T11:22:37;13.00;99.90
10046;DHT22;5063;50.878;4.742;2023-04-24T11:25:04;12.90;99.90
10046;DHT22;5063;50.878;4.742;2023-04-24T11:27:32;13.50;99.90
10046;DHT22;5063;50.878;4.742;2023-04-24T11:30:01;13.80;99.90
10046;DHT22;5063;50.878;4.742;2023-04-24T11:32:40;13.70;99.90
10046;DHT22;5063;50.878;4.742;2023-04-24T11:35:12;13.50;99.90
10046;DHT22;5063;50.878;4.742;2023-04-24T11:37:40;13.30;99.90
10046;DHT22;5063;50.878;4.742;2023-04-24T11:40:11;13.20;99.90
10046;DHT22;5063;50.878;4.742;2023-04-24T11:42:42;13.30;99.90
10046;DHT22;5063;50.878;4.742;2023-04-24T11:45:09;13.40;99.90
10046;DHT22;5063;50.878;4.742;2023-04-24T11:47:36;13.80;99.90
10046;DHT22;5063;50.878;4.742;2023-04-24T11:50:03;14.00;99.90
10046;DHT22;5063;50.878;4.742;2023-04-24T11:52:30;14.20;99.90
10046;DHT22;5063;50.878;4.742;2023-04-24T11:54:56;13.80;99.90
10046;DHT22;5063;50.878;4.742;2023-04-24T11:57:24;13.80;99.90
10046;DHT22;5063;50.878;4.742;2023-04-24T11:59:53;13.90;99.90
10046;DHT22;5063;50.878;4.742;2023-04-24T12:02:26;13.60;99.90
10046;DHT22;5063;50.878;4.742;2023-04-24T12:04:53;13.80;99.90
10046;DHT22;5063;50.878;4.742;2023-04-24T12:07:19;13.80;99.90
10046;DHT22;5063;50.878;4.742;2023-04-24T12:09:46;14.10;99.90
10046;DHT22;5063;50.878;4.742;2023-04-24T12:12:14;14.50;99.90
10046;DHT22;5063;50.878;4.742;2023-04-24T12:14:52;14.70;99.90
10046;DHT22;5063;50.878;4.742;2023-04-24T12:17:27;15.00;99.90
10046;DHT22;5063;50.878;4.742;2023-04-24T12:19:58;15.10;99.90
10046;DHT22;5063;50.878;4.742;2023-04-24T12:22:24;14.20;99.90
10046;DHT22;5063;50.878;4.742;2023-04-24T12:25:17;14.30;99.90
10046;DHT22;5063;50.878;4.742;2023-04-24T12:27:51;14.80;99.90
10046;DHT22;5063;50.878;4.742;2023-04-24T12:30:19;15.10;99.90
10046;DHT22;5063;50.878;4.742;2023-04-24T12:32:49;14.90;99.90
10046;DHT22;5063;50.878;4.742;2023-04-24T12:35:22;14.90;99.90
10046;DHT22;5063;50.878;4.742;2023-04-24T12:37:49;14.90;99.90
10046;DHT22;5063;50.878;4.742;2023-04-24T12:40:17;14.80;99.90
10046;DHT22;5063;50.878;4.742;2023-04-24T12:42:48;14.60;99.90
10046;DHT22;5063;50.878;4.742;2023-04-24T12:45:16;14.90;99.90
10046;DHT22;5063;50.878;4.742;2023-04-24T12:47:44;14.80;99.90
10046;DHT22;5063;50.878;4.742;2023-04-24T12:50:11;15.20;99.90
10046;DHT22;5063;50.878;4.742;2023-04-24T12:52:37;15.30;99.90
10046;DHT22;5063;50.878;4.742;2023-04-24T12:55:05;14.90;99.90
10046;DHT22;5063;50.878;4.742;2023-04-24T12:57:34;15.00;99.90
10046;DHT22;5063;50.878;4.742;2023-04-24T13:00:00;14.60;99.90
10046;DHT22;5063;50.878;4.742;2023-04-24T13:02:30;14.90;99.90
10046;DHT22;5063;50.878;4.742;2023-04-24T13:04:57;15.10;99.90
10046;DHT22;5063;50.878;4.742;2023-04-24T13:07:23;15.20;99.90
10046;DHT22;5063;50.878;4.742;2023-04-24T13:09:51;15.20;99.90
10046;DHT22;5063;50.878;4.742;2023-04-24T13:12:17;15.30;99.90
10046;DHT22;5063;50.878;4.742;2023-04-24T13:14:43;15.90;99.90
10046;DHT22;5063;50.878;4.742;2023-04-24T13:17:09;16.00;99.90
10046;DHT22;5063;50.878;4.742;2023-04-24T13:19:41;16.10;99.90
10046;DHT22;5063;50.878;4.742;2023-04-24T13:22:09;15.50;99.90
10046;DHT22;5063;50.878;4.742;2023-04-24T13:24:35;14.90;99.90
10046;DHT22;5063;50.878;4.742;2023-04-24T13:27:01;14.80;99.90
10046;DHT22;5063;50.878;4.742;2023-04-24T13:29:27;14.70;99.90
10046;DHT22;5063;50.878;4.742;2023-04-24T13:31:54;14.40;99.90
10046;DHT22;5063;50.878;4.742;2023-04-24T13:34:21;14.20;99.90
10046;DHT22;5063;50.878;4.742;2023-04-24T13:36:47;14.20;99.90
10046;DHT22;5063;50.878;4.742;2023-04-24T13:39:13;14.30;99.90
10046;DHT22;5063;50.878;4.742;2023-04-24T13:41:39;14.50;99.90
10046;DHT22;5063;50.878;4.742;2023-04-24T13:44:06;14.50;99.90
10046;DHT22;5063;50.878;4.742;2023-04-24T13:46:31;14.90;99.90
10046;DHT22;5063;50.878;4.742;2023-04-24T13:48:57;15.20;99.90
10046;DHT22;5063;50.878;4.742;2023-04-24T13:51:27;15.40;99.90
10046;DHT22;5063;50.878;4.742;2023-04-24T13:53:53;15.70;99.90
10046;DHT22;5063;50.878;4.742;2023-04-24T13:56:19;15.90;99.90
10046;DHT22;5063;50.878;4.742;2023-04-24T13:58:45;16.00;99.90
10046;DHT22;5063;50.878;4.742;2023-04-24T14:01:11;15.90;99.90
10046;DHT22;5063;50.878;4.742;2023-04-24T14:03:38;16.20;99.90
10046;DHT22;5063;50.878;4.742;2023-04-24T14:06:04;16.10;99.90
10046;DHT22;5063;50.878;4.742;2023-04-24T14:08:30;15.90;99.90
10046;DHT22;5063;50.878;4.742;2023-04-24T14:10:55;15.40;99.90
10046;DHT22;5063;50.878;4.742;2023-04-24T14:13:21;14.90;99.90
10046;DHT22;5063;50.878;4.742;2023-04-24T14:15:47;14.80;99.90
10046;DHT22;5063;50.878;4.742;2023-04-24T14:18:13;15.00;99.90
10046;DHT22;5063;50.878;4.742;2023-04-24T14:20:38;15.00;99.90
10046;DHT22;5063;50.878;4.742;2023-04-24T14:23:04;14.90;99.90
10046;DHT22;5063;50.878;4.742;2023-04-24T14:25:30;14.60;99.90
10046;DHT22;5063;50.878;4.742;2023-04-24T14:27:56;14.70;99.90
10046;DHT22;5063;50.878;4.742;2023-04-24T14:30:22;14.70;99.90
10046;DHT22;5063;50.878;4.742;2023-04-24T14:32:48;14.70;99.90
10046;DHT22;5063;50.878;4.742;2023-04-24T14:35:14;14.70;99.90
10046;DHT22;5063;50.878;4.742;2023-04-24T14:37:40;15.10;99.90
10046;DHT22;5063;50.878;4.742;2023-04-24T14:40:07;15.00;99.90
10046;DHT22;5063;50.878;4.742;2023-04-24T14:42:33;14.90;99.90
10046;DHT22;5063;50.878;4.742;2023-04-24T14:44:59;14.80;99.90
10046;DHT22;5063;50.878;4.742;2023-04-24T14:47:25;15.00;99.90
10046;DHT22;5063;50.878;4.742;2023-04-24T14:49:51;14.80;99.90
10046;DHT22;5063;50.878;4.742;2023-04-24T14:52:17;14.30;99.90
10046;DHT22;5063;50.878;4.742;2023-04-24T14:54:43;14.30;99.90
10046;DHT22;5063;50.878;4.742;2023-04-24T14:57:09;14.20;99.90
10046;DHT22;5063;50.878;4.742;2023-04-24T14:59:35;14.10;99.90
10046;DHT22;5063;50.878;4.742;2023-04-24T15:02:00;14.00;99.90
10046;DHT22;5063;50.878;4.742;2023-04-24T15:04:28;14.00;99.90
10046;DHT22;5063;50.878;4.742;2023-04-24T15:06:54;14.00;99.90
10046;DHT22;5063;50.878;4.742;2023-04-24T15:09:21;13.80;99.90
10046;DHT22;5063;50.878;4.742;2023-04-24T15:11:48;13.80;99.90
10046;DHT22;5063;50.878;4.742;2023-04-24T15:14:15;13.60;99.90
10046;DHT22;5063;50.878;4.742;2023-04-24T15:16:41;13.60;99.90
10046;DHT22;5063;50.878;4.742;2023-04-24T15:19:07;13.70;99.90
10046;DHT22;5063;50.878;4.742;2023-04-24T15:21:32;13.50;99.90
10046;DHT22;5063;50.878;4.742;2023-04-24T15:23:58;13.60;99.90
10046;DHT22;5063;50.878;4.742;2023-04-24T15:26:24;13.50;99.90
10046;DHT22;5063;50.878;4.742;2023-04-24T15:28:51;13.70;99.90
10046;DHT22;5063;50.878;4.742;2023-04-24T15:31:17;13.70;99.90
10046;DHT22;5063;50.878;4.742;2023-04-24T15:33:43;13.70;99.90
10046;DHT22;5063;50.878;4.742;2023-04-24T15:36:09;13.70;99.90
10046;DHT22;5063;50.878;4.742;2023-04-24T15:38:35;13.80;99.90
10046;DHT22;5063;50.878;4.742;2023-04-24T15:41:01;13.90;99.90
10046;DHT22;5063;50.878;4.742;2023-04-24T15:43:27;14.00;99.90
10046;DHT22;5063;50.878;4.742;2023-04-24T15:45:57;14.10;99.90
10046;DHT22;5063;50.878;4.742;2023-04-24T15:48:23;14.00;99.90
10046;DHT22;5063;50.878;4.742;2023-04-24T15:50:49;13.80;99.90
10046;DHT22;5063;50.878;4.742;2023-04-24T15:53:14;13.60;99.90
10046;DHT22;5063;50.878;4.742;2023-04-24T15:55:50;13.70;99.90
10046;DHT22;5063;50.878;4.742;2023-04-24T15:58:16;13.90;99.90
10046;DHT22;5063;50.878;4.742;2023-04-24T16:00:43;13.70;99.90
10046;DHT22;5063;50.878;4.742;2023-04-24T16:03:09;13.70;99.90